Time;durP1;ratioP1;P1;durP2;ratioP2;P2;SDS_P1;SDS_P2;PMS_P1;PMS_P2;Temp;Humidity;BMP_temperature;BMP_pressure;BME280_temperature;BME280_humidity;BME280_pressure;Samples;Min_cycle;Max_cycle;Signal;HPM_P1;HPM_P2
2021/08/15 00:01:34;;;;;;;19.33;10.90;;;;;;;;;;5013077;28;20271;-70
2021/08/15 00:04:00;;;;;;;20.30;11.10;;;;;;;;;;5011632;28;20638;-69
2021/08/15 00:06:25;;;;;;;18.30;11.55;;;;;;;;;;5012401;28;21696;-69
2021/08/15 00:08:51;;;;;;;21.60;11.50;;;;;;;;;;5019505;28;20193;-70
2021/08/15 00:11:16;;;;;;;20.55;11.63;;;;;;;;;;5021830;28;20560;-70
2021/08/15 00:13:42;;;;;;;22.15;11.32;;;;;;;;;;5022365;28;20279;-70
2021/08/15 00:16:07;;;;;;;18.77;11.15;;;;;;;;;;5051532;28;20193;-70
2021/08/15 00:18:35;;;;;;;21.88;12.35;;;;;;;;;;5022525;28;20186;-70
2021/08/15 00:21:00;;;;;;;23.23;12.60;;;;;;;;;;5019484;28;20201;-70
2021/08/15 00:23:25;;;;;;;18.83;11.70;;;;;;;;;;5015569;28;20542;-70
2021/08/15 00:25:51;;;;;;;20.52;12.43;;;;;;;;;;5021884;28;20209;-70
2021/08/15 00:28:16;;;;;;;22.77;11.30;;;;;;;;;;5017252;28;20223;-70
2021/08/15 00:30:41;;;;;;;21.02;11.93;;;;;;;;;;5021950;28;20572;-70
2021/08/15 00:33:07;;;;;;;20.80;12.10;;;;;;;;;;5021159;28;20688;-70
2021/08/15 00:35:32;;;;;;;22.02;12.23;;;;;;;;;;5020797;28;20193;-70
2021/08/15 00:37:58;;;;;;;18.25;11.85;;;;;;;;;;5022138;28;20192;-70
2021/08/15 00:40:23;;;;;;;23.05;12.55;;;;;;;;;;5016946;28;20182;-70
2021/08/15 00:42:48;;;;;;;24.13;11.43;;;;;;;;;;5028873;28;20700;-70
2021/08/15 00:45:14;;;;;;;22.38;12.45;;;;;;;;;;5011828;28;20285;-70
2021/08/15 00:47:39;;;;;;;20.60;12.57;;;;;;;;;;5020185;28;20236;-70
2021/08/15 00:50:05;;;;;;;21.73;12.65;;;;;;;;;;5014776;28;20208;-69
2021/08/15 00:52:30;;;;;;;19.13;12.45;;;;;;;;;;5028853;28;21661;-69
2021/08/15 00:54:58;;;;;;;24.70;12.30;;;;;;;;;;5012964;28;20185;-69
2021/08/15 00:57:25;;;;;;;21.98;12.13;;;;;;;;;;5026199;28;20628;-70
2021/08/15 00:59:51;;;;;;;23.60;12.48;;;;;;;;;;5014688;28;20218;-70
2021/08/15 01:02:16;;;;;;;20.05;12.45;;;;;;;;;;5023144;28;20747;-69
2021/08/15 01:04:43;;;;;;;23.92;13.15;;;;;;;;;;5014137;28;20206;-69
2021/08/15 01:07:08;;;;;;;21.92;13.32;;;;;;;;;;5012914;28;20253;-70
2021/08/15 01:09:34;;;;;;;28.25;13.88;;;;;;;;;;5008550;28;20269;-70
2021/08/15 01:12:00;;;;;;;19.85;11.90;;;;;;;;;;5025046;28;20532;-70
2021/08/15 01:14:25;;;;;;;21.58;13.50;;;;;;;;;;5023784;28;20192;-70
2021/08/15 01:16:51;;;;;;;25.63;13.85;;;;;;;;;;5019281;28;20703;-70
2021/08/15 01:19:16;;;;;;;24.17;13.57;;;;;;;;;;5019767;28;20186;-70
2021/08/15 01:21:43;;;;;;;23.65;13.38;;;;;;;;;;5016512;28;20272;-70
2021/08/15 01:24:08;;;;;;;20.77;13.05;;;;;;;;;;5019742;28;20248;-70
2021/08/15 01:26:34;;;;;;;26.67;13.48;;;;;;;;;;5007981;28;20190;-70
2021/08/15 01:29:00;;;;;;;23.42;13.57;;;;;;;;;;5016656;28;20292;-70
2021/08/15 01:31:25;;;;;;;25.17;13.68;;;;;;;;;;5012777;28;20240;-70
2021/08/15 01:33:51;;;;;;;22.95;12.95;;;;;;;;;;5020210;28;20186;-69
2021/08/15 01:36:19;;;;;;;25.40;13.93;;;;;;;;;;5012371;28;20186;-70
2021/08/15 01:38:46;;;;;;;22.30;13.40;;;;;;;;;;5021980;28;20193;-70
2021/08/15 01:41:11;;;;;;;27.83;15.55;;;;;;;;;;5016705;28;20182;-70
2021/08/15 01:43:57;;;;;;;25.33;15.07;;;;;;;;;;5020451;28;20197;-70
2021/08/15 01:46:25;;;;;;;22.40;14.30;;;;;;;;;;5014424;28;20185;-71
2021/08/15 01:48:51;;;;;;;25.60;14.77;;;;;;;;;;5019739;28;20672;-70
2021/08/15 01:51:17;;;;;;;25.58;13.55;;;;;;;;;;5023370;28;20281;-70
2021/08/15 01:53:44;;;;;;;25.00;14.48;;;;;;;;;;5013873;28;20202;-70
2021/08/15 01:56:09;;;;;;;21.90;14.23;;;;;;;;;;5021412;28;20197;-70
2021/08/15 01:58:35;;;;;;;23.17;13.98;;;;;;;;;;5012376;28;20202;-69
2021/08/15 02:01:01;;;;;;;26.00;13.65;;;;;;;;;;5027394;28;20193;-69
2021/08/15 02:03:26;;;;;;;20.27;12.43;;;;;;;;;;5027517;28;20194;-70
2021/08/15 02:05:52;;;;;;;22.23;13.10;;;;;;;;;;5017525;28;20273;-70
2021/08/15 02:08:17;;;;;;;19.63;13.52;;;;;;;;;;5014846;28;20213;-70
2021/08/15 02:10:43;;;;;;;24.45;13.32;;;;;;;;;;5026879;28;20214;-70
2021/08/15 02:13:08;;;;;;;20.90;13.15;;;;;;;;;;5012609;28;20232;-70
2021/08/15 02:15:34;;;;;;;25.20;14.35;;;;;;;;;;5027644;28;20194;-70
2021/08/15 02:18:00;;;;;;;20.50;13.18;;;;;;;;;;5012003;28;20268;-70
2021/08/15 02:20:27;;;;;;;25.65;15.43;;;;;;;;;;5021162;28;20193;-70
2021/08/15 02:22:52;;;;;;;25.70;16.30;;;;;;;;;;5021158;28;20554;-70
2021/08/15 02:25:19;;;;;;;27.55;15.63;;;;;;;;;;5014559;28;20187;-70
2021/08/15 02:27:45;;;;;;;33.22;16.75;;;;;;;;;;5025061;28;20311;-70
2021/08/15 02:30:13;;;;;;;25.98;15.77;;;;;;;;;;5013278;28;20216;-70
2021/08/15 02:32:38;;;;;;;25.45;14.52;;;;;;;;;;5026957;28;20196;-70
2021/08/15 02:35:06;;;;;;;21.98;13.40;;;;;;;;;;5018787;28;20190;-70
2021/08/15 02:37:32;;;;;;;21.98;13.60;;;;;;;;;;5026217;28;20195;-70
2021/08/15 02:40:01;;;;;;;26.08;14.15;;;;;;;;;;5020419;28;20193;-70
2021/08/15 02:42:28;;;;;;;21.80;13.60;;;;;;;;;;5041974;28;20197;-70
2021/08/15 02:44:53;;;;;;;22.30;13.40;;;;;;;;;;5017741;28;20544;-70
2021/08/15 02:47:19;;;;;;;23.20;13.63;;;;;;;;;;5026687;28;20209;-69
2021/08/15 02:49:44;;;;;;;27.17;14.63;;;;;;;;;;5019605;28;21333;-70
2021/08/15 02:52:09;;;;;;;22.25;13.52;;;;;;;;;;5027540;28;20182;-69
2021/08/15 02:54:35;;;;;;;23.63;14.00;;;;;;;;;;5023388;28;20277;-69
2021/08/15 02:57:02;;;;;;;19.73;13.25;;;;;;;;;;5015157;28;20200;-69
2021/08/15 02:59:27;;;;;;;25.15;13.30;;;;;;;;;;5020946;28;20214;-69
2021/08/15 03:01:52;;;;;;;26.75;14.38;;;;;;;;;;5015120;28;20246;-70
2021/08/15 03:04:18;;;;;;;23.10;13.30;;;;;;;;;;5029774;28;20188;-69
2021/08/15 03:06:43;;;;;;;21.05;13.20;;;;;;;;;;5015639;28;20194;-70
2021/08/15 03:09:08;;;;;;;21.17;12.73;;;;;;;;;;5026255;28;20190;-69
2021/08/15 03:11:34;;;;;;;19.95;12.93;;;;;;;;;;5017360;28;20214;-69
2021/08/15 03:13:59;;;;;;;22.17;13.35;;;;;;;;;;5026258;28;20198;-69
2021/08/15 03:16:24;;;;;;;23.20;13.98;;;;;;;;;;5019776;28;20186;-71
2021/08/15 03:18:50;;;;;;;25.75;14.25;;;;;;;;;;5028621;28;20190;-70
2021/08/15 03:21:15;;;;;;;27.67;15.73;;;;;;;;;;5019195;28;23372;-69
2021/08/15 03:23:41;;;;;;;27.83;16.02;;;;;;;;;;5027600;28;20192;-69
2021/08/15 03:26:06;;;;;;;23.48;14.27;;;;;;;;;;5023886;28;20184;-70
2021/08/15 03:28:32;;;;;;;29.48;15.05;;;;;;;;;;5018459;28;20306;-70
2021/08/15 03:30:57;;;;;;;23.60;14.15;;;;;;;;;;5025154;28;20227;-70
2021/08/15 03:33:22;;;;;;;27.42;16.60;;;;;;;;;;5009362;28;20183;-69
2021/08/15 03:35:48;;;;;;;29.80;15.73;;;;;;;;;;5021226;28;20674;-70
2021/08/15 03:38:13;;;;;;;22.58;14.15;;;;;;;;;;5007975;28;20192;-70
2021/08/15 03:40:38;;;;;;;29.52;15.95;;;;;;;;;;5020114;28;20217;-70
2021/08/15 03:43:04;;;;;;;24.55;15.82;;;;;;;;;;5006242;28;20596;-70
2021/08/15 03:45:29;;;;;;;30.83;16.73;;;;;;;;;;5018701;28;20316;-70
2021/08/15 03:47:55;;;;;;;25.95;16.17;;;;;;;;;;5008938;28;20293;-70
2021/08/15 03:50:20;;;;;;;26.45;16.60;;;;;;;;;;5016294;28;20264;-69
2021/08/15 03:52:45;;;;;;;30.13;16.23;;;;;;;;;;5008281;28;20665;-70
2021/08/15 03:55:11;;;;;;;29.15;15.52;;;;;;;;;;5018675;28;20182;-70
2021/08/15 03:57:40;;;;;;;28.17;15.40;;;;;;;;;;5020334;28;20287;-69
2021/08/15 04:00:07;;;;;;;23.15;13.05;;;;;;;;;;5014169;28;20210;-70
2021/08/15 04:02:32;;;;;;;25.27;13.32;;;;;;;;;;5024970;28;20275;-70
2021/08/15 04:04:57;;;;;;;25.58;14.75;;;;;;;;;;5016386;28;20672;-70
2021/08/15 04:07:23;;;;;;;22.85;13.90;;;;;;;;;;5020696;28;20214;-70
2021/08/15 04:09:48;;;;;;;26.55;14.45;;;;;;;;;;5021823;28;20645;-70
2021/08/15 04:12:13;;;;;;;22.40;13.25;;;;;;;;;;5025234;28;20567;-70
2021/08/15 04:14:39;;;;;;;20.48;13.40;;;;;;;;;;5017233;28;20194;-70
2021/08/15 04:17:04;;;;;;;23.33;14.45;;;;;;;;;;5016514;28;20340;-69
2021/08/15 04:19:29;;;;;;;24.80;14.98;;;;;;;;;;5013748;28;20275;-69
2021/08/15 04:21:55;;;;;;;25.20;14.40;;;;;;;;;;5017267;28;20206;-70
2021/08/15 04:24:20;;;;;;;23.95;14.90;;;;;;;;;;5018768;28;20182;-69
2021/08/15 04:26:46;;;;;;;22.77;13.63;;;;;;;;;;5025325;28;20260;-70
2021/08/15 04:29:13;;;;;;;21.33;13.20;;;;;;;;;;5021287;28;20635;-70
2021/08/15 04:31:40;;;;;;;25.15;13.55;;;;;;;;;;5010981;28;20240;-70
2021/08/15 04:34:05;;;;;;;17.90;12.85;;;;;;;;;;5034292;28;20219;-70
2021/08/15 04:36:31;;;;;;;21.08;12.85;;;;;;;;;;5009319;28;20190;-70
2021/08/15 04:38:56;;;;;;;21.33;13.70;;;;;;;;;;5017647;28;20182;-69
2021/08/15 04:41:21;;;;;;;21.27;13.07;;;;;;;;;;5008928;28;20212;-70
2021/08/15 04:43:47;;;;;;;18.63;12.80;;;;;;;;;;5035001;28;20174;-70
2021/08/15 04:46:12;;;;;;;22.40;13.73;;;;;;;;;;5010623;28;20186;-70
2021/08/15 04:48:37;;;;;;;23.67;13.70;;;;;;;;;;5017624;28;20218;-71
2021/08/15 04:51:03;;;;;;;25.05;12.85;;;;;;;;;;5007402;28;20198;-69
2021/08/15 04:53:28;;;;;;;22.85;12.50;;;;;;;;;;5051173;28;20518;-69
2021/08/15 04:55:54;;;;;;;20.10;12.60;;;;;;;;;;5009760;28;20265;-70
2021/08/15 04:58:19;;;;;;;20.98;13.20;;;;;;;;;;5016700;28;20198;-69
2021/08/15 05:00:45;;;;;;;24.63;12.88;;;;;;;;;;5018672;28;20190;-70
2021/08/15 05:03:11;;;;;;;25.08;13.18;;;;;;;;;;5012660;28;20252;-70
2021/08/15 05:05:38;;;;;;;20.88;11.88;;;;;;;;;;5021806;28;20197;-70
2021/08/15 05:08:04;;;;;;;25.65;14.07;;;;;;;;;;5022051;28;20970;-70
2021/08/15 05:10:29;;;;;;;20.42;13.82;;;;;;;;;;5018342;28;20186;-69
2021/08/15 05:12:55;;;;;;;23.33;13.75;;;;;;;;;;5018839;28;20248;-69
2021/08/15 05:15:20;;;;;;;24.02;13.65;;;;;;;;;;5017750;28;20304;-70
2021/08/15 05:17:46;;;;;;;20.45;12.70;;;;;;;;;;5013071;28;20182;-70
2021/08/15 05:20:12;;;;;;;23.85;13.50;;;;;;;;;;5016900;28;20716;-69
2021/08/15 05:22:37;;;;;;;24.30;12.90;;;;;;;;;;5015173;28;20198;-69
2021/08/15 05:25:03;;;;;;;26.55;13.35;;;;;;;;;;5022458;28;20221;-69
2021/08/15 05:27:29;;;;;;;25.00;12.90;;;;;;;;;;5012806;28;20649;-70
2021/08/15 05:29:54;;;;;;;21.17;12.00;;;;;;;;;;4322830;28;10000772;-70
2021/08/15 05:32:19;;;;;;;21.20;12.90;;;;;;;;;;5023253;28;20224;-69
2021/08/15 05:34:45;;;;;;;22.15;12.25;;;;;;;;;;5011393;28;20193;-70
2021/08/15 05:37:10;;;;;;;22.63;12.82;;;;;;;;;;5015964;28;20212;-69
2021/08/15 05:39:35;;;;;;;23.25;14.60;;;;;;;;;;5007850;28;20537;-70
2021/08/15 05:42:01;;;;;;;24.67;14.35;;;;;;;;;;5018715;28;20796;-70
2021/08/15 05:44:26;;;;;;;17.98;11.40;;;;;;;;;;5008076;28;20677;-70
2021/08/15 05:46:51;;;;;;;23.33;12.90;;;;;;;;;;5015426;28;20259;-70
2021/08/15 05:49:17;;;;;;;24.20;14.07;;;;;;;;;;5013937;28;20203;-70
2021/08/15 05:51:42;;;;;;;21.88;13.48;;;;;;;;;;5036275;28;20213;-70
2021/08/15 05:54:07;;;;;;;21.38;14.02;;;;;;;;;;5009603;28;20186;-70
2021/08/15 05:56:36;;;;;;;24.55;13.90;;;;;;;;;;5021374;28;20268;-70
2021/08/15 05:59:01;;;;;;;24.25;15.60;;;;;;;;;;5009800;28;20285;-70
2021/08/15 06:01:28;;;;;;;26.20;15.85;;;;;;;;;;5019673;28;20267;-70
2021/08/15 06:03:53;;;;;;;25.80;16.02;;;;;;;;;;5016277;28;20264;-70
2021/08/15 06:06:19;;;;;;;24.70;15.43;;;;;;;;;;5014504;28;20618;-70
2021/08/15 06:08:44;;;;;;;23.15;15.35;;;;;;;;;;5019365;28;20214;-70
2021/08/15 06:11:09;;;;;;;25.45;15.23;;;;;;;;;;5013560;28;20289;-70
2021/08/15 06:13:35;;;;;;;26.80;15.32;;;;;;;;;;5023672;28;20195;-70
2021/08/15 06:16:00;;;;;;;25.30;14.88;;;;;;;;;;5019794;28;20186;-70
2021/08/15 06:18:25;;;;;;;25.08;15.68;;;;;;;;;;5024660;28;20627;-70
2021/08/15 06:20:50;;;;;;;23.17;14.45;;;;;;;;;;5013159;28;20205;-70
2021/08/15 06:23:16;;;;;;;30.05;15.80;;;;;;;;;;5020655;28;20186;-70
2021/08/15 06:25:41;;;;;;;21.05;15.07;;;;;;;;;;5010230;28;20186;-70
2021/08/15 06:28:07;;;;;;;23.63;15.90;;;;;;;;;;5019378;28;20267;-70
2021/08/15 06:30:32;;;;;;;24.33;15.68;;;;;;;;;;5015012;28;20237;-69
2021/08/15 06:32:58;;;;;;;21.35;14.65;;;;;;;;;;5020420;28;20195;-70
2021/08/15 06:35:26;;;;;;;24.95;16.10;;;;;;;;;;5017430;28;20179;-70
2021/08/15 06:37:53;;;;;;;23.75;15.65;;;;;;;;;;5012501;28;20232;-70
2021/08/15 06:40:20;;;;;;;25.65;16.25;;;;;;;;;;5013305;28;20183;-70
2021/08/15 06:42:45;;;;;;;25.90;17.35;;;;;;;;;;4665613;28;10000614;-70
2021/08/15 06:45:11;;;;;;;26.20;17.42;;;;;;;;;;5022580;28;20267;-70
2021/08/15 06:47:37;;;;;;;24.45;15.25;;;;;;;;;;5013969;28;20328;-70
2021/08/15 06:50:03;;;;;;;25.90;15.65;;;;;;;;;;5022605;28;20190;-70
2021/08/15 06:52:30;;;;;;;33.88;17.80;;;;;;;;;;5016962;28;20190;-70
2021/08/15 06:54:57;;;;;;;28.85;18.23;;;;;;;;;;5017340;28;20194;-70
2021/08/15 06:57:23;;;;;;;27.27;18.00;;;;;;;;;;5005889;28;20198;-70
2021/08/15 06:59:48;;;;;;;26.38;17.48;;;;;;;;;;5028522;28;20255;-70
2021/08/15 07:02:13;;;;;;;26.40;17.77;;;;;;;;;;5008158;28;20285;-70
2021/08/15 07:04:39;;;;;;;28.70;17.70;;;;;;;;;;5015152;28;20752;-71
2021/08/15 07:07:04;;;;;;;28.40;18.55;;;;;;;;;;5011583;28;20222;-70
2021/08/15 07:09:30;;;;;;;29.98;17.85;;;;;;;;;;5019641;28;20174;-70
2021/08/15 07:11:55;;;;;;;24.70;18.17;;;;;;;;;;5016550;28;20191;-70
2021/08/15 07:14:20;;;;;;;27.52;19.13;;;;;;;;;;5007018;28;20183;-70
2021/08/15 07:16:45;;;;;;;29.45;17.92;;;;;;;;;;5016791;28;20564;-70
2021/08/15 07:19:11;;;;;;;29.63;17.95;;;;;;;;;;5007066;28;20186;-70
2021/08/15 07:21:36;;;;;;;24.90;16.35;;;;;;;;;;5016528;28;20229;-70
2021/08/15 07:24:01;;;;;;;26.00;17.98;;;;;;;;;;5009067;28;20191;-70
2021/08/15 07:26:27;;;;;;;25.08;17.67;;;;;;;;;;5015416;28;20555;-70
2021/08/15 07:28:53;;;;;;;28.13;17.90;;;;;;;;;;5008825;28;20207;-70
2021/08/15 07:31:18;;;;;;;25.05;17.50;;;;;;;;;;5018319;28;20205;-71
2021/08/15 07:33:44;;;;;;;24.20;18.80;;;;;;;;;;5008946;28;20531;-70
2021/08/15 07:36:09;;;;;;;33.10;19.52;;;;;;;;;;5019805;28;20650;-70
2021/08/15 07:38:34;;;;;;;27.00;16.88;;;;;;;;;;5023008;28;20653;-70
2021/08/15 07:41:00;;;;;;;25.80;17.50;;;;;;;;;;5011536;28;20531;-70
2021/08/15 07:43:25;;;;;;;23.60;15.68;;;;;;;;;;5016819;28;20232;-70
2021/08/15 07:45:51;;;;;;;26.88;18.67;;;;;;;;;;5008669;28;20334;-70
2021/08/15 07:48:17;;;;;;;26.70;17.17;;;;;;;;;;5013787;28;20248;-70
2021/08/15 07:50:42;;;;;;;26.90;18.08;;;;;;;;;;5010843;28;20284;-70
2021/08/15 07:53:25;;;;;;;22.70;17.25;;;;;;;;;;5017358;28;20733;-71
2021/08/15 07:55:52;;;;;;;27.05;17.10;;;;;;;;;;5010672;28;20221;-70
2021/08/15 07:58:19;;;;;;;25.48;16.30;;;;;;;;;;5018230;28;20206;-70
2021/08/15 08:00:45;;;;;;;22.55;16.58;;;;;;;;;;5013796;28;20273;-71
2021/08/15 08:03:10;;;;;;;22.90;15.80;;;;;;;;;;5018569;28;20360;-71
2021/08/15 08:05:36;;;;;;;24.70;15.13;;;;;;;;;;5009455;28;20735;-69
2021/08/15 08:08:01;;;;;;;21.77;14.77;;;;;;;;;;5020781;28;20553;-70
2021/08/15 08:10:27;;;;;;;19.10;12.63;;;;;;;;;;5009924;28;20617;-70
2021/08/15 08:12:52;;;;;;;20.98;11.82;;;;;;;;;;5017589;28;20197;-70
2021/08/15 08:15:18;;;;;;;16.58;11.95;;;;;;;;;;5017223;28;20552;-70
2021/08/15 08:17:43;;;;;;;19.60;12.07;;;;;;;;;;5017790;28;20197;-69
2021/08/15 08:20:12;;;;;;;19.08;12.23;;;;;;;;;;5012884;28;20269;-69
2021/08/15 08:22:37;;;;;;;19.65;11.32;;;;;;;;;;5009932;28;20225;-70
2021/08/15 08:25:02;;;;;;;18.55;12.02;;;;;;;;;;5017396;28;20228;-70
2021/08/15 08:27:28;;;;;;;18.98;11.93;;;;;;;;;;5010847;28;20230;-70
2021/08/15 08:29:53;;;;;;;20.20;11.32;;;;;;;;;;5020564;28;20269;-70
2021/08/15 08:32:18;;;;;;;20.63;11.68;;;;;;;;;;5013080;28;20198;-70
2021/08/15 08:34:44;;;;;;;16.92;10.95;;;;;;;;;;5027696;28;20201;-71
2021/08/15 08:37:10;;;;;;;21.48;11.15;;;;;;;;;;5019529;28;20226;-71
2021/08/15 08:39:35;;;;;;;22.10;12.65;;;;;;;;;;5022262;28;20656;-69
2021/08/15 08:42:03;;;;;;;15.75;11.32;;;;;;;;;;5021424;28;20529;-70
2021/08/15 08:44:31;;;;;;;18.77;11.80;;;;;;;;;;5031202;28;20189;-70
2021/08/15 08:47:05;;;;;;;16.00;11.48;;;;;;;;;;5020174;28;20637;-71
2021/08/15 08:49:33;;;;;;;17.48;10.85;;;;;;;;;;5012819;28;20204;-71
2021/08/15 08:51:58;;;;;;;18.65;11.65;;;;;;;;;;5024870;28;20185;-70
2021/08/15 08:54:28;;;;;;;18.23;10.85;;;;;;;;;;5014339;28;20264;-70
2021/08/15 08:56:54;;;;;;;20.55;10.85;;;;;;;;;;5023087;28;20238;-70
2021/08/15 08:59:20;;;;;;;16.38;9.75;;;;;;;;;;5016488;28;20637;-70
2021/08/15 09:01:45;;;;;;;17.55;10.68;;;;;;;;;;5021768;28;20319;-71
2021/08/15 09:04:11;;;;;;;16.67;10.38;;;;;;;;;;5026272;28;20186;-70
2021/08/15 09:06:38;;;;;;;17.05;10.82;;;;;;;;;;5022478;28;20269;-71
2021/08/15 09:09:18;;;;;;;17.88;11.20;;;;;;;;;;5011208;28;20206;-68
2021/08/15 09:11:49;;;;;;;15.15;9.18;;;;;;;;;;5023672;28;20183;-70
2021/08/15 09:14:24;;;;;;;11.82;7.45;;;;;;;;;;5012178;28;20595;-69
2021/08/15 09:17:07;;;;;;;19.42;10.13;;;;;;;;;;5017172;28;20901;-70
2021/08/15 09:20:00;;;;;;;17.38;8.98;;;;;;;;;;5009237;28;22819;-70
2021/08/15 09:22:27;;;;;;;15.52;8.77;;;;;;;;;;5015791;28;20285;-69
2021/08/15 09:25:04;;;;;;;14.38;8.00;;;;;;;;;;5014039;28;20198;-70
2021/08/15 09:27:37;;;;;;;15.52;8.60;;;;;;;;;;5016267;28;20670;-69
2021/08/15 09:30:10;;;;;;;16.25;8.23;;;;;;;;;;5014320;28;20186;-71
2021/08/15 09:32:38;;;;;;;17.52;8.38;;;;;;;;;;5016550;28;20677;-71
2021/08/15 09:35:04;;;;;;;19.52;8.60;;;;;;;;;;5011964;28;20194;-69
2021/08/15 09:37:34;;;;;;;14.00;8.30;;;;;;;;;;5016074;28;20194;-69
2021/08/15 09:40:00;;;;;;;16.58;9.00;;;;;;;;;;5020162;28;20194;-69
2021/08/15 09:42:40;;;;;;;12.90;7.95;;;;;;;;;;5020090;28;20669;-69
2021/08/15 09:45:06;;;;;;;13.38;7.57;;;;;;;;;;5023348;28;20617;-69
2021/08/15 09:47:32;;;;;;;13.43;7.22;;;;;;;;;;5013853;28;20614;-69
2021/08/15 09:49:57;;;;;;;11.98;7.20;;;;;;;;;;5020026;28;20194;-69
2021/08/15 09:52:37;;;;;;;14.55;7.55;;;;;;;;;;5011456;28;20185;-70
2021/08/15 09:55:03;;;;;;;11.68;6.55;;;;;;;;;;5018666;28;20273;-70
2021/08/15 09:57:32;;;;;;;13.57;6.88;;;;;;;;;;5012796;28;20285;-70
2021/08/15 09:59:57;;;;;;;9.68;6.50;;;;;;;;;;5017999;28;20617;-71
2021/08/15 10:02:23;;;;;;;12.82;6.60;;;;;;;;;;5007817;28;20258;-70
2021/08/15 10:04:49;;;;;;;10.27;7.15;;;;;;;;;;5020832;28;20284;-69
2021/08/15 10:07:15;;;;;;;9.52;6.72;;;;;;;;;;5010053;28;20205;-71
2021/08/15 10:09:40;;;;;;;9.57;6.40;;;;;;;;;;5017788;28;20693;-70
2021/08/15 10:12:07;;;;;;;10.90;6.60;;;;;;;;;;5011981;28;20228;-70
2021/08/15 10:14:32;;;;;;;10.27;6.22;;;;;;;;;;5019073;28;20682;-70
2021/08/15 10:17:01;;;;;;;9.02;5.45;;;;;;;;;;5014891;28;20217;-71
2021/08/15 10:19:37;;;;;;;8.10;5.57;;;;;;;;;;5022560;28;20198;-71
2021/08/15 10:22:03;;;;;;;6.60;4.90;;;;;;;;;;5018230;28;20695;-71
2021/08/15 10:24:41;;;;;;;8.48;5.30;;;;;;;;;;5007692;28;20194;-71
2021/08/15 10:27:07;;;;;;;10.43;6.65;;;;;;;;;;5013571;28;20191;-70
2021/08/15 10:29:36;;;;;;;11.70;6.45;;;;;;;;;;5004920;28;20685;-70
2021/08/15 10:32:18;;;;;;;10.65;6.63;;;;;;;;;;5016805;28;20178;-71
2021/08/15 10:34:50;;;;;;;8.77;5.63;;;;;;;;;;5008549;28;20206;-70
2021/08/15 10:37:36;;;;;;;10.20;5.70;;;;;;;;;;5016293;28;20194;-73
2021/08/15 10:40:03;;;;;;;11.82;6.15;;;;;;;;;;5007649;28;20248;-70
2021/08/15 10:42:43;;;;;;;8.98;5.82;;;;;;;;;;5021850;28;20186;-71
2021/08/15 10:45:12;;;;;;;10.80;6.07;;;;;;;;;;5012259;28;20718;-70
2021/08/15 10:47:38;;;;;;;8.85;5.68;;;;;;;;;;5020942;28;20206;-70
2021/08/15 10:50:06;;;;;;;12.93;7.03;;;;;;;;;;5009689;28;20187;-72
2021/08/15 10:52:38;;;;;;;11.75;6.40;;;;;;;;;;5021222;28;20185;-71
2021/08/15 10:55:10;;;;;;;9.65;5.30;;;;;;;;;;5014890;28;20198;-71
2021/08/15 10:57:47;;;;;;;13.35;5.63;;;;;;;;;;5023169;28;20186;-72
2021/08/15 11:00:31;;;;;;;8.15;5.43;;;;;;;;;;5026575;28;20214;-71
2021/08/15 11:02:59;;;;;;;8.90;5.30;;;;;;;;;;5020816;28;20231;-71
2021/08/15 11:05:38;;;;;;;9.57;5.72;;;;;;;;;;5008950;28;20205;-70
2021/08/15 11:08:05;;;;;;;10.27;5.35;;;;;;;;;;5023713;28;20201;-70
2021/08/15 11:11:02;;;;;;;11.25;5.28;;;;;;;;;;5008724;28;20198;-70
2021/08/15 11:13:31;;;;;;;9.43;4.78;;;;;;;;;;5024164;28;20667;-70
2021/08/15 11:16:25;;;;;;;9.63;4.40;;;;;;;;;;5015508;28;20191;-71
2021/08/15 11:19:08;;;;;;;7.47;4.13;;;;;;;;;;5020341;28;20197;-70
2021/08/15 11:21:59;;;;;;;11.48;5.45;;;;;;;;;;5016841;28;20225;-70
2021/08/15 11:24:24;;;;;;;10.80;5.30;;;;;;;;;;5049084;28;20927;-69
2021/08/15 11:26:50;;;;;;;7.45;4.00;;;;;;;;;;5016317;28;20432;-71
2021/08/15 11:29:19;;;;;;;7.50;4.30;;;;;;;;;;5019936;28;20301;-69
2021/08/15 11:31:47;;;;;;;9.05;4.10;;;;;;;;;;5014537;28;20252;-70
2021/08/15 11:34:12;;;;;;;7.18;3.75;;;;;;;;;;5018074;28;20594;-72
2021/08/15 11:36:37;;;;;;;8.18;4.68;;;;;;;;;;5016161;28;20194;-69
2021/08/15 11:39:05;;;;;;;6.10;4.63;;;;;;;;;;5016067;28;20187;-70
2021/08/15 11:41:31;;;;;;;8.70;3.90;;;;;;;;;;5017424;28;20186;-70
2021/08/15 11:43:56;;;;;;;7.55;4.20;;;;;;;;;;5018377;28;20257;-70
2021/08/15 11:46:22;;;;;;;7.40;3.97;;;;;;;;;;5017707;28;20549;-70
2021/08/15 11:48:47;;;;;;;7.63;4.75;;;;;;;;;;5016389;28;20256;-72
2021/08/15 11:51:13;;;;;;;6.68;4.10;;;;;;;;;;5020947;28;20191;-69
2021/08/15 11:53:39;;;;;;;6.32;3.80;;;;;;;;;;5012221;28;20193;-72
2021/08/15 11:56:16;;;;;;;7.90;4.05;;;;;;;;;;5020639;28;20703;-69
2021/08/15 11:58:45;;;;;;;7.70;4.25;;;;;;;;;;5013596;28;20258;-72
2021/08/15 12:01:12;;;;;;;8.02;3.88;;;;;;;;;;5017660;28;20186;-72
2021/08/15 12:03:37;;;;;;;11.65;4.70;;;;;;;;;;5008562;28;20341;-71
2021/08/15 12:06:08;;;;;;;10.30;4.82;;;;;;;;;;5020328;28;20283;-70
2021/08/15 12:08:43;;;;;;;10.85;5.13;;;;;;;;;;5013555;28;20627;-72
2021/08/15 12:11:27;;;;;;;7.30;4.22;;;;;;;;;;5022268;28;20190;-71
2021/08/15 12:14:13;;;;;;;6.93;4.05;;;;;;;;;;5013244;28;20232;-70
2021/08/15 12:17:00;;;;;;;11.88;4.78;;;;;;;;;;5019096;28;20301;-70
2021/08/15 12:19:28;;;;;;;9.13;4.40;;;;;;;;;;5009749;28;20229;-72
2021/08/15 12:21:55;;;;;;;7.85;4.05;;;;;;;;;;5024848;28;20270;-69
2021/08/15 12:24:26;;;;;;;12.13;4.25;;;;;;;;;;5010780;28;20191;-70
2021/08/15 12:26:51;;;;;;;8.18;4.13;;;;;;;;;;5022648;28;20189;-70
2021/08/15 12:29:27;;;;;;;7.03;3.75;;;;;;;;;;5012611;28;20587;-71
2021/08/15 12:32:04;;;;;;;10.10;3.95;;;;;;;;;;5016601;28;20312;-71
2021/08/15 12:34:31;;;;;;;10.73;4.93;;;;;;;;;;5009802;28;20210;-73
2021/08/15 12:36:57;;;;;;;6.10;3.50;;;;;;;;;;5019989;28;20194;-71
2021/08/15 12:39:31;;;;;;;5.85;3.65;;;;;;;;;;5012495;28;20190;-70
2021/08/15 12:42:03;;;;;;;6.75;4.07;;;;;;;;;;5021401;28;20545;-70
2021/08/15 12:44:49;;;;;;;6.45;3.70;;;;;;;;;;5008909;28;20599;-72
2021/08/15 12:47:22;;;;;;;6.03;3.80;;;;;;;;;;5018507;28;20224;-69
2021/08/15 12:49:47;;;;;;;7.85;3.80;;;;;;;;;;5010280;28;20217;-72
2021/08/15 12:52:22;;;;;;;7.38;3.50;;;;;;;;;;5022045;28;20566;-71
2021/08/15 12:55:06;;;;;;;6.95;3.30;;;;;;;;;;5013248;28;20197;-70
2021/08/15 12:57:33;;;;;;;5.47;3.50;;;;;;;;;;5018204;28;20280;-71
2021/08/15 12:59:58;;;;;;;9.30;3.75;;;;;;;;;;5020274;28;20190;-72
2021/08/15 13:02:24;;;;;;;4.13;3.08;;;;;;;;;;5011969;28;20295;-72
2021/08/15 13:04:49;;;;;;;6.55;3.42;;;;;;;;;;5019394;28;20201;-71
2021/08/15 13:07:15;;;;;;;6.63;3.22;;;;;;;;;;5015454;28;20646;-72
2021/08/15 13:09:40;;;;;;;6.43;3.05;;;;;;;;;;5020476;28;20190;-73
2021/08/15 13:12:06;;;;;;;6.28;3.40;;;;;;;;;;5019937;28;20190;-72
2021/08/15 13:14:31;;;;;;;5.25;3.30;;;;;;;;;;5021718;28;21664;-71
2021/08/15 13:16:57;;;;;;;5.57;3.03;;;;;;;;;;5011318;28;20547;-71
2021/08/15 13:19:24;;;;;;;4.97;3.25;;;;;;;;;;5022168;28;20185;-71
2021/08/15 13:21:52;;;;;;;5.05;2.60;;;;;;;;;;5013758;28;20714;-71
2021/08/15 13:24:18;;;;;;;6.05;3.22;;;;;;;;;;5019069;28;20194;-73
2021/08/15 13:26:43;;;;;;;5.93;2.53;;;;;;;;;;5019699;28;20192;-71
2021/08/15 13:29:10;;;;;;;4.68;2.80;;;;;;;;;;5021611;28;20209;-70
2021/08/15 13:31:36;;;;;;;4.03;2.85;;;;;;;;;;5029095;28;20178;-71
2021/08/15 13:34:01;;;;;;;5.30;2.97;;;;;;;;;;5010931;28;20638;-73
2021/08/15 13:36:26;;;;;;;4.70;2.60;;;;;;;;;;5023160;28;20182;-71
2021/08/15 13:38:52;;;;;;;6.28;2.92;;;;;;;;;;5009064;28;20321;-73
2021/08/15 13:41:17;;;;;;;4.60;2.75;;;;;;;;;;5023019;28;20189;-73
2021/08/15 13:43:42;;;;;;;3.22;2.05;;;;;;;;;;5012175;28;20236;-70
2021/08/15 13:46:09;;;;;;;4.70;2.83;;;;;;;;;;5019695;28;20178;-70
2021/08/15 13:48:34;;;;;;;5.93;2.58;;;;;;;;;;5014425;28;20206;-69
2021/08/15 13:51:00;;;;;;;3.60;2.53;;;;;;;;;;5020068;28;20217;-69
2021/08/15 13:53:25;;;;;;;4.88;2.35;;;;;;;;;;5007072;28;20226;-71
2021/08/15 13:55:50;;;;;;;4.53;2.40;;;;;;;;;;5021160;28;20185;-71
2021/08/15 13:58:16;;;;;;;4.88;2.88;;;;;;;;;;5007188;28;20233;-70
2021/08/15 14:00:42;;;;;;;2.80;2.13;;;;;;;;;;5022926;28;20172;-71
2021/08/15 14:03:08;;;;;;;5.05;2.22;;;;;;;;;;5024497;28;20276;-72
2021/08/15 14:05:34;;;;;;;4.38;2.70;;;;;;;;;;5011470;28;20186;-71
2021/08/15 14:08:02;;;;;;;4.35;2.70;;;;;;;;;;5018357;28;20218;-71
2021/08/15 14:10:27;;;;;;;3.95;2.10;;;;;;;;;;5010776;28;20186;-71
2021/08/15 14:12:53;;;;;;;4.32;2.20;;;;;;;;;;5023400;28;20528;-70
2021/08/15 14:15:19;;;;;;;4.93;2.70;;;;;;;;;;5009088;28;20195;-69
2021/08/15 14:17:44;;;;;;;3.63;2.38;;;;;;;;;;5018122;28;20545;-69
2021/08/15 14:20:10;;;;;;;5.45;2.47;;;;;;;;;;5014530;28;20186;-70
2021/08/15 14:22:36;;;;;;;4.63;2.40;;;;;;;;;;5015400;28;20549;-69
2021/08/15 14:25:03;;;;;;;2.95;1.65;;;;;;;;;;5014370;28;20191;-71